createdAt,value
2018-04-24T00:00:49.675Z,98110.58
2018-04-24T00:01:53.025Z,98111.90
2018-04-24T00:02:58.096Z,98105.33
2018-04-24T00:04:02.526Z,98106.83
2018-04-24T00:05:05.524Z,98108.48
2018-04-24T00:06:08.498Z,98110.72
2018-04-24T00:07:11.582Z,98108.75
2018-04-24T00:08:15.466Z,98108.02
2018-04-24T00:09:20.409Z,98106.77
2018-04-24T00:10:24.825Z,98112.91
2018-04-24T00:11:28.809Z,98105.90
2018-04-24T00:12:35.796Z,98106.05
2018-04-24T00:13:38.680Z,98110.31
2018-04-24T00:14:41.533Z,98110.44
2018-04-24T00:15:44.778Z,98105.21
2018-04-24T00:16:47.993Z,98107.91
2018-04-24T00:17:51.640Z,98112.74
2018-04-24T00:18:54.361Z,98106.83
2018-04-24T00:19:57.060Z,98115.66
2018-04-24T00:20:59.785Z,98105.43
2018-04-24T00:22:03.679Z,98112.67
2018-04-24T00:23:06.980Z,98107.62
2018-04-24T00:24:09.765Z,98113.45
2018-04-24T00:25:12.520Z,98112.94
2018-04-24T00:26:15.658Z,98115.17
2018-04-24T00:27:18.852Z,98114.26
2018-04-24T00:28:23.033Z,98107.66
2018-04-24T00:29:26.382Z,98106.97
2018-04-24T00:30:29.210Z,98107.25
2018-04-24T00:31:31.974Z,98103.11
2018-04-24T00:32:35.852Z,98103.02
2018-04-24T00:33:39.826Z,98106.48
2018-04-24T00:34:43.657Z,98102.59
2018-04-24T00:35:46.502Z,98100.20
2018-04-24T00:36:49.327Z,98098.62
2018-04-24T00:37:52.281Z,98096.41
2018-04-24T00:38:55.979Z,98095.89
2018-04-24T00:39:58.876Z,98089.85
2018-04-24T00:41:01.955Z,98097.47
2018-04-24T00:42:04.759Z,98089.08
2018-04-24T00:43:07.905Z,98089.77
2018-04-24T00:44:11.619Z,98092.08
2018-04-24T00:45:15.880Z,98089.68
2018-04-24T00:46:18.653Z,98086.34
2018-04-24T00:47:21.758Z,98091.09
2018-04-24T00:48:24.504Z,98086.30
2018-04-24T00:49:27.638Z,98081.97
2018-04-24T00:50:31.345Z,98077.38
2018-04-24T00:51:34.174Z,98082.70
2018-04-24T00:52:37.000Z,98076.16
2018-04-24T00:53:40.088Z,98080.31
2018-04-24T00:54:43.525Z,98073.59
2018-04-24T00:55:46.420Z,98072.39
2018-04-24T00:56:49.456Z,98076.54
2018-04-24T00:57:52.257Z,98077.86
2018-04-24T00:58:55.904Z,98081.46
2018-04-24T01:00:00.005Z,98076.11
2018-04-24T01:01:02.897Z,98082.06
2018-04-24T01:02:05.917Z,98081.52
2018-04-24T01:03:08.723Z,98083.94
2018-04-24T01:04:12.036Z,98088.86
2018-04-24T01:05:16.472Z,98089.91
2018-04-24T01:06:19.665Z,98087.29
2018-04-24T01:07:22.379Z,98094.55
2018-04-24T01:08:25.113Z,98092.09
2018-04-24T01:09:29.368Z,98095.47
2018-04-24T01:10:33.303Z,98091.92
2018-04-24T01:11:36.140Z,98094.88
2018-04-24T01:12:39.218Z,98092.51
2018-04-24T01:13:42.043Z,98089.95
2018-04-24T01:14:46.101Z,98091.01
2018-04-24T01:15:50.318Z,98094.28
2018-04-24T01:16:53.323Z,98091.39
2018-04-24T01:17:56.486Z,98088.17
2018-04-24T01:18:59.473Z,98090.67
2018-04-24T01:20:02.506Z,98088.72
2018-04-24T01:21:05.720Z,98099.80
2018-04-24T01:22:09.737Z,98092.67
2018-04-24T01:23:12.560Z,98094.00
2018-04-24T01:24:15.379Z,98097.06
2018-04-24T01:25:18.978Z,98090.88
2018-04-24T01:26:22.111Z,98088.02
2018-04-24T01:27:26.159Z,98092.30
2018-04-24T01:28:29.092Z,98091.13
2018-04-24T01:29:31.848Z,98090.94
2018-04-24T01:30:34.807Z,98086.25
2018-04-24T01:31:38.945Z,98076.97
2018-04-24T01:32:41.679Z,98084.03
2018-04-24T01:33:44.532Z,98078.85
2018-04-24T01:34:47.331Z,98085.80
2018-04-24T01:35:50.806Z,98084.34
2018-04-24T01:36:53.623Z,98079.52
2018-04-24T01:37:56.792Z,98088.05
2018-04-24T01:38:59.560Z,98076.35
2018-04-24T01:40:02.580Z,98080.95
2018-04-24T01:41:06.335Z,98084.38
2018-04-24T01:42:09.372Z,98088.78
2018-04-24T01:43:12.111Z,98083.48
2018-04-24T01:44:15.142Z,98088.96
2018-04-24T01:45:18.977Z,98087.52
2018-04-24T01:46:23.390Z,98082.53
2018-04-24T01:47:26.506Z,98079.60
2018-04-24T01:48:29.401Z,98086.66
2018-04-24T01:49:32.178Z,98083.91
2018-04-24T01:50:35.838Z,98074.34
2018-04-24T01:51:39.643Z,98074.28
2018-04-24T01:52:43.836Z,98071.84
2018-04-24T01:53:46.685Z,98073.85
2018-04-24T01:54:49.517Z,98080.40
2018-04-24T01:55:52.382Z,98077.98
2018-04-24T01:56:56.743Z,98081.99
2018-04-24T01:58:00.729Z,98082.99
2018-04-24T01:59:03.686Z,98087.86
2018-04-24T02:00:06.473Z,98087.81
2018-04-24T02:01:09.208Z,98089.14
2018-04-24T02:02:12.661Z,98089.45
2018-04-24T02:03:16.484Z,98089.45
2018-04-24T02:04:19.330Z,98093.48
2018-04-24T02:05:22.402Z,98094.77
2018-04-24T02:06:25.316Z,98092.91
2018-04-24T02:07:29.136Z,98089.69
2018-04-24T02:08:32.298Z,98090.56
2018-04-24T02:09:35.625Z,98087.15
2018-04-24T02:10:38.353Z,98087.11
2018-04-24T02:11:41.424Z,98079.58
2018-04-24T02:12:45.600Z,98088.55
2018-04-24T02:13:48.408Z,98078.53
2018-04-24T02:14:51.684Z,98084.95
2018-04-24T02:15:54.769Z,98081.92
2018-04-24T02:16:58.094Z,98082.16
2018-04-24T02:18:01.169Z,98082.52
2018-04-24T02:19:03.865Z,98086.30
2018-04-24T02:20:06.541Z,98089.78
2018-04-24T02:21:09.530Z,98091.80
2018-04-24T02:22:13.673Z,98089.71
2018-04-24T02:23:16.422Z,98084.27
2018-04-24T02:24:19.116Z,98082.66
2018-04-24T02:25:21.868Z,98085.52
2018-04-24T02:26:24.898Z,98086.91
2018-04-24T02:27:28.112Z,98086.17
2018-04-24T02:28:31.226Z,98081.92
2018-04-24T02:29:34.066Z,98087.23
2018-04-24T02:30:37.104Z,98083.64
2018-04-24T02:31:40.886Z,98078.59
2018-04-24T02:32:43.695Z,98077.94
2018-04-24T02:33:46.487Z,98074.31
2018-04-24T02:34:49.615Z,98077.02
2018-04-24T02:35:52.700Z,98079.23
2018-04-24T02:36:55.847Z,98075.50
2018-04-24T02:37:58.564Z,98070.50
2018-04-24T02:39:01.345Z,98073.79
2018-04-24T02:40:04.671Z,98072.14
2018-04-24T02:41:08.668Z,98069.14
2018-04-24T02:42:12.099Z,98070.99
2018-04-24T02:43:14.798Z,98075.41
2018-04-24T02:44:17.477Z,98065.77
2018-04-24T02:45:20.510Z,98068.51
2018-04-24T02:46:23.466Z,98074.39
2018-04-24T02:47:26.533Z,98076.08
2018-04-24T02:48:29.252Z,98075.83
2018-04-24T02:49:32.294Z,98079.41
2018-04-24T02:50:35.748Z,98075.87
2018-04-24T02:51:38.543Z,98080.28
2018-04-24T02:52:41.360Z,98081.26
2018-04-24T02:53:44.416Z,98077.34
2018-04-24T02:54:47.640Z,98080.63
2018-04-24T02:55:51.687Z,98079.72
2018-04-24T02:56:54.501Z,98078.33
2018-04-24T02:57:57.284Z,98081.37
2018-04-24T02:59:00.473Z,98081.80
2018-04-24T03:00:04.666Z,98081.72
2018-04-24T03:01:07.838Z,98084.52
2018-04-24T03:02:10.718Z,98079.02
2018-04-24T03:03:13.455Z,98079.23
2018-04-24T03:04:16.461Z,98074.11
2018-04-24T03:05:21.232Z,98074.48
2018-04-24T03:06:25.146Z,98079.30
2018-04-24T03:07:27.965Z,98076.03
2018-04-24T03:08:30.755Z,98078.28
2018-04-24T03:09:33.446Z,98070.56
2018-04-24T03:10:37.673Z,98069.69
2018-04-24T03:11:40.806Z,98070.03
2018-04-24T03:12:43.860Z,98068.98
2018-04-24T03:13:46.565Z,98067.16
2018-04-24T03:14:49.505Z,98067.77
2018-04-24T03:15:52.982Z,98061.80
2018-04-24T03:16:55.684Z,98068.38
2018-04-24T03:17:58.370Z,98062.67
2018-04-24T03:19:01.725Z,98065.05
2018-04-24T03:20:05.305Z,98063.00
2018-04-24T03:21:08.124Z,98070.77
2018-04-24T03:22:10.906Z,98062.31
2018-04-24T03:23:13.861Z,98061.20
2018-04-24T03:24:17.537Z,98057.42
2018-04-24T03:25:22.042Z,98055.39
2018-04-24T03:26:25.554Z,98056.66
2018-04-24T03:27:28.260Z,98064.12
2018-04-24T03:28:30.983Z,98066.70
2018-04-24T03:29:33.660Z,98076.92
2018-04-24T03:30:38.208Z,98070.20
2018-04-24T03:31:42.041Z,98070.84
2018-04-24T03:32:45.595Z,98068.92
2018-04-24T03:33:48.307Z,98071.92
2018-04-24T03:34:51.027Z,98066.67
2018-04-24T03:35:53.905Z,98066.47
2018-04-24T03:36:57.316Z,98064.40
2018-04-24T03:38:00.007Z,98062.69
2018-04-24T03:39:02.706Z,98057.92
2018-04-24T03:40:05.957Z,98055.20
2018-04-24T03:41:11.292Z,98055.19
2018-04-24T03:42:14.973Z,98052.14
2018-04-24T03:43:18.170Z,98059.78
2018-04-24T03:44:21.003Z,98049.97
2018-04-24T03:45:23.919Z,98046.56
2018-04-24T03:46:27.056Z,98044.81
2018-04-24T03:47:30.707Z,98045.41
2018-04-24T03:48:33.860Z,98047.62
2018-04-24T03:49:36.648Z,98038.12
2018-04-24T03:50:39.428Z,98038.81
2018-04-24T03:51:43.269Z,98032.09
2018-04-24T03:52:46.400Z,98025.15
2018-04-24T03:53:49.245Z,98025.22
2018-04-24T03:54:52.347Z,98029.82
2018-04-24T03:55:55.388Z,98031.19
2018-04-24T03:56:59.597Z,98028.45
2018-04-24T03:58:03.178Z,98025.82
2018-04-24T03:59:05.979Z,98024.45
2018-04-24T04:00:09.072Z,98028.17
2018-04-24T04:01:12.392Z,98018.69
2018-04-24T04:02:16.406Z,98018.89
2018-04-24T04:03:19.935Z,98018.02
2018-04-24T04:04:22.752Z,98012.52
2018-04-24T04:05:25.553Z,98013.84
2018-04-24T04:06:29.728Z,98015.27
2018-04-24T04:07:34.498Z,98016.19
2018-04-24T04:08:38.551Z,98014.44
2018-04-24T04:09:43.331Z,98013.92
2018-04-24T04:10:46.756Z,98015.84
2018-04-24T04:11:49.655Z,98015.53
2018-04-24T04:12:52.444Z,98014.38
2018-04-24T04:13:55.227Z,98020.27
2018-04-24T04:14:58.413Z,98015.59
2018-04-24T04:16:02.095Z,98018.13
2018-04-24T04:17:05.612Z,98022.30
2018-04-24T04:18:08.703Z,98029.06
2018-04-24T04:19:11.488Z,98029.66
2018-04-24T04:20:14.831Z,98022.59
2018-04-24T04:21:18.086Z,98034.95
2018-04-24T04:22:20.878Z,98029.83
2018-04-24T04:23:23.667Z,98029.73
2018-04-24T04:24:27.341Z,98027.66
2018-04-24T04:25:32.339Z,98035.42
2018-04-24T04:26:37.368Z,98034.16
2018-04-24T04:27:40.826Z,98028.04
2018-04-24T04:28:43.719Z,98030.22
2018-04-24T04:29:46.552Z,98029.91
2018-04-24T04:30:49.533Z,98028.90
2018-04-24T04:31:53.220Z,98038.22
2018-04-24T04:32:56.062Z,98041.05
2018-04-24T04:33:58.935Z,98035.11
2018-04-24T04:35:01.723Z,98034.41
2018-04-24T04:36:05.510Z,98034.37
2018-04-24T04:37:09.689Z,98041.73
2018-04-24T04:38:12.487Z,98044.55
2018-04-24T04:39:15.366Z,98040.37
2018-04-24T04:40:18.138Z,98045.83
2018-04-24T04:41:22.696Z,98040.92
2018-04-24T04:42:26.405Z,98042.64
2018-04-24T04:43:31.045Z,98036.41
2018-04-24T04:44:33.879Z,98040.86
2018-04-24T04:45:36.736Z,98040.19
2018-04-24T04:46:40.428Z,98037.50
2018-04-24T04:47:43.908Z,98045.10
2018-04-24T04:48:49.694Z,98038.52
2018-04-24T04:49:54.837Z,98040.80
2018-04-24T04:50:57.589Z,98043.17
2018-04-24T04:52:00.234Z,98040.54
2018-04-24T04:53:02.948Z,98038.75
2018-04-24T04:54:06.021Z,98036.06
2018-04-24T04:55:10.909Z,98039.19
2018-04-24T04:56:14.135Z,98024.02
2018-04-24T04:57:16.989Z,98030.84
2018-04-24T04:58:19.843Z,98035.63
2018-04-24T04:59:22.709Z,98036.93
2018-04-24T05:00:26.533Z,98033.42
2018-04-24T05:01:30.543Z,98039.39
2018-04-24T05:02:33.352Z,98036.83
2018-04-24T05:03:36.110Z,98033.72
2018-04-24T05:04:38.848Z,98037.67
2018-04-24T05:05:43.157Z,98042.02
2018-04-24T05:06:46.185Z,98041.45
2018-04-24T05:07:49.295Z,98040.88
2018-04-24T05:08:52.079Z,98043.55
2018-04-24T05:09:55.040Z,98042.70
2018-04-24T05:10:59.455Z,98042.42
2018-04-24T05:12:02.663Z,98048.77
2018-04-24T05:13:05.462Z,98049.60
2018-04-24T05:14:08.563Z,98047.69
2018-04-24T05:15:11.711Z,98043.98
2018-04-24T05:16:15.655Z,98045.97
2018-04-24T05:17:18.481Z,98050.59
2018-04-24T05:18:21.221Z,98047.97
2018-04-24T05:19:24.941Z,98047.44
2018-04-24T05:20:27.936Z,98047.55
2018-04-24T05:21:31.790Z,98050.39
2018-04-24T05:22:34.649Z,98053.47
2018-04-24T05:23:37.462Z,98056.28
2018-04-24T05:24:40.190Z,98058.86
2018-04-24T05:25:43.797Z,98063.50
2018-04-24T05:26:47.500Z,98064.33
2018-04-24T05:27:50.421Z,98058.36
2018-04-24T05:28:53.139Z,98065.73
2018-04-24T05:29:56.151Z,98070.99
2018-04-24T05:30:59.438Z,98065.97
2018-04-24T05:32:02.666Z,98073.39
2018-04-24T05:33:05.450Z,98065.28
2018-04-24T05:34:08.180Z,98067.17
2018-04-24T05:35:12.397Z,98071.95
2018-04-24T05:36:16.380Z,98067.20
2018-04-24T05:37:19.087Z,98069.24
2018-04-24T05:38:22.207Z,98067.88
2018-04-24T05:39:25.052Z,98061.63
2018-04-24T05:40:28.351Z,98071.48
2018-04-24T05:41:31.718Z,98078.70
2018-04-24T05:42:34.800Z,98070.20
2018-04-24T05:43:37.609Z,98079.87
2018-04-24T05:44:40.840Z,98080.61
2018-04-24T05:45:45.336Z,98085.72
2018-04-24T05:46:48.725Z,98085.28
2018-04-24T05:47:51.510Z,98087.25
2018-04-24T05:48:54.257Z,98084.45
2018-04-24T05:49:56.934Z,98086.00
2018-04-24T05:51:00.700Z,98080.70
2018-04-24T05:52:04.063Z,98082.90
2018-04-24T05:53:06.948Z,98076.91
2018-04-24T05:54:09.657Z,98082.48
2018-04-24T05:55:13.487Z,98082.56
2018-04-24T05:56:17.644Z,98088.03
2018-04-24T05:57:21.087Z,98076.45
2018-04-24T05:58:23.832Z,98078.84
2018-04-24T05:59:26.605Z,98079.97
2018-04-24T06:00:30.271Z,98079.94
2018-04-24T06:01:33.579Z,98077.00
2018-04-24T06:02:36.393Z,98085.09
2018-04-24T06:03:39.232Z,98089.11
2018-04-24T06:04:42.032Z,98086.94
2018-04-24T06:05:46.654Z,98082.62
2018-04-24T06:06:50.499Z,98088.58
2018-04-24T06:07:53.536Z,98091.77
2018-04-24T06:08:56.976Z,98088.73
2018-04-24T06:09:59.716Z,98090.88
2018-04-24T06:11:03.073Z,98092.86
2018-04-24T06:12:09.174Z,98091.76
2018-04-24T06:13:12.458Z,98097.34
2018-04-24T06:14:15.603Z,98095.95
2018-04-24T06:15:18.802Z,98090.23
2018-04-24T06:16:21.591Z,98094.05
2018-04-24T06:17:24.777Z,98099.14
2018-04-24T06:18:27.516Z,98097.83
2018-04-24T06:19:30.294Z,98102.05
2018-04-24T06:20:33.018Z,98095.35
2018-04-24T06:21:36.551Z,98102.54
2018-04-24T06:22:40.967Z,98102.12
2018-04-24T06:23:43.932Z,98098.34
2018-04-24T06:24:46.761Z,98099.45
2018-04-24T06:25:49.599Z,98096.37
2018-04-24T06:26:52.750Z,98105.38
2018-04-24T06:27:57.299Z,98100.96
2018-04-24T06:29:00.397Z,98107.23
2018-04-24T06:30:03.797Z,98105.63
2018-04-24T06:31:06.900Z,98096.22
2018-04-24T06:32:10.256Z,98102.11
2018-04-24T06:33:13.195Z,98100.41
2018-04-24T06:34:17.389Z,98099.77
2018-04-24T06:35:21.277Z,98094.22
2018-04-24T06:36:24.187Z,98096.31
2018-04-24T06:37:26.966Z,98099.39
2018-04-24T06:38:29.880Z,98090.78
2018-04-24T06:39:33.970Z,98094.92
2018-04-24T06:40:37.446Z,98100.45
2018-04-24T06:41:40.253Z,98098.33
2018-04-24T06:42:42.999Z,98095.89
2018-04-24T06:43:46.117Z,98096.53
2018-04-24T06:44:49.516Z,98097.48
2018-04-24T06:45:52.495Z,98104.61
2018-04-24T06:46:55.736Z,98101.48
2018-04-24T06:47:58.508Z,98095.21
2018-04-24T06:49:01.446Z,98098.08
2018-04-24T06:50:04.478Z,98101.53
2018-04-24T06:51:07.272Z,98107.72
2018-04-24T06:52:10.090Z,98109.15
2018-04-24T06:53:13.566Z,98107.33
2018-04-24T06:54:17.786Z,98110.55
2018-04-24T06:55:20.943Z,98102.89
2018-04-24T06:56:23.767Z,98105.63
2018-04-24T06:57:26.529Z,98110.81
2018-04-24T06:58:29.537Z,98106.84
2018-04-24T06:59:32.843Z,98114.11
2018-04-24T07:00:35.702Z,98109.28
2018-04-24T07:01:38.744Z,98104.63
2018-04-24T07:02:41.618Z,98106.45
2018-04-24T07:03:45.762Z,98106.50
2018-04-24T07:04:49.283Z,98105.74
2018-04-24T07:05:52.460Z,98110.33
2018-04-24T07:06:55.179Z,98106.67
2018-04-24T07:07:57.949Z,98097.58
2018-04-24T07:09:01.060Z,98110.09
2018-04-24T07:10:06.000Z,98107.23
2018-04-24T07:11:10.975Z,98114.68
2018-04-24T07:12:15.088Z,98111.98
2018-04-24T07:13:18.518Z,98113.51
2018-04-24T07:14:27.653Z,98110.75
2018-04-24T07:15:31.260Z,98115.28
2018-04-24T07:16:35.382Z,98114.15
2018-04-24T07:17:38.430Z,98120.89
2018-04-24T07:18:41.288Z,98119.43
2018-04-24T07:19:44.146Z,98120.47
2018-04-24T07:20:49.269Z,98120.53
2018-04-24T07:21:53.681Z,98123.97
2018-04-24T07:22:58.755Z,98119.83
2018-04-24T07:24:01.984Z,98115.72
2018-04-24T07:25:04.888Z,98112.13
2018-04-24T07:26:07.869Z,98121.67
2018-04-24T07:27:10.657Z,98115.22
2018-04-24T07:28:14.283Z,98112.48
2018-04-24T07:29:17.195Z,98112.74
2018-04-24T07:35:48.097Z,98112.97
2018-04-24T07:36:50.764Z,98104.48
2018-04-24T07:37:53.473Z,98108.20
2018-04-24T07:38:56.713Z,98102.66
2018-04-24T07:39:59.970Z,98113.53
2018-04-24T07:41:03.217Z,98114.91
2018-04-24T07:42:06.152Z,98105.77
2018-04-24T07:43:10.125Z,98107.57
2018-04-24T07:47:00.887Z,98088.36
2018-04-24T07:48:04.033Z,98107.02
2018-04-24T07:49:07.182Z,98095.66
2018-04-24T07:50:10.024Z,98097.95
2018-04-24T07:51:12.808Z,98086.85
2018-04-24T07:52:16.042Z,98075.00
2018-04-24T07:53:19.688Z,98093.13
2018-04-24T07:54:22.473Z,98089.34
2018-04-24T07:55:25.287Z,98094.39
2018-04-24T07:56:28.139Z,98090.77
2018-04-24T07:57:31.644Z,98088.84
2018-04-24T07:58:35.150Z,98086.81
2018-04-24T07:59:40.283Z,98084.02
2018-04-24T08:00:43.661Z,98082.13
2018-04-24T08:01:46.526Z,98088.39
2018-04-24T08:02:49.284Z,98080.25
2018-04-24T08:03:52.676Z,98075.90
2018-04-24T08:04:57.127Z,98076.21
2018-04-24T08:06:01.413Z,98091.27
2018-04-24T08:07:04.434Z,98095.61
2018-04-24T08:08:07.846Z,98090.83
2018-04-24T08:09:10.708Z,98099.38
2018-04-24T08:10:13.803Z,98094.51
2018-04-24T08:11:18.629Z,98094.67
2018-04-24T08:12:21.486Z,98087.92
2018-04-24T08:13:25.439Z,98086.84
2018-04-24T08:14:28.347Z,98090.80
2018-04-24T08:15:34.507Z,98092.42
2018-04-24T08:16:38.168Z,98085.20
2018-04-24T08:17:42.957Z,98079.80
2018-04-24T08:18:47.222Z,98088.45
2018-04-24T08:19:52.199Z,98097.64
2018-04-24T08:20:57.201Z,98102.33
2018-04-24T08:22:00.241Z,98098.64
2018-04-24T08:23:03.251Z,98086.91
2018-04-24T08:24:06.376Z,98078.83
2018-04-24T08:25:09.462Z,98097.06
2018-04-24T08:26:14.418Z,98094.50
2018-04-24T08:27:18.310Z,98092.15
2018-04-24T08:28:21.109Z,98100.00
2018-04-24T08:29:23.887Z,98098.02
2018-04-24T08:30:28.578Z,98101.96
2018-04-24T08:31:31.656Z,98093.47
2018-04-24T08:32:34.551Z,98094.20
2018-04-24T08:33:37.388Z,98106.64
2018-04-24T08:34:40.472Z,98102.50
2018-04-24T08:35:44.592Z,98102.57
2018-04-24T08:36:47.781Z,98111.39
2018-04-24T08:37:50.603Z,98099.98
2018-04-24T08:38:53.371Z,98099.38
2018-04-24T08:39:56.214Z,98110.73
2018-04-24T08:40:58.998Z,98103.63
2018-04-24T08:42:01.761Z,98101.19
2018-04-24T08:43:04.895Z,98104.06
2018-04-24T08:44:07.669Z,98117.16
2018-04-24T08:45:10.528Z,98099.84
2018-04-24T08:46:13.402Z,98098.27
2018-04-24T08:47:16.207Z,98084.92
2018-04-24T08:48:18.965Z,98082.83
2018-04-24T08:49:22.090Z,98086.30
2018-04-24T08:50:24.858Z,98096.77
2018-04-24T08:51:27.834Z,98083.41
2018-04-24T08:52:30.671Z,98084.92
2018-04-24T08:53:34.050Z,98074.48
2018-04-24T08:54:37.611Z,98086.33
2018-04-24T08:55:40.726Z,98084.02
2018-04-24T08:56:43.716Z,98087.13
2018-04-24T08:57:46.433Z,98085.30
2018-04-24T08:58:49.214Z,98085.97
2018-04-24T08:59:52.021Z,98076.80
2018-04-24T09:00:54.844Z,98087.27
2018-04-24T09:01:57.958Z,98095.73
2018-04-24T09:03:00.810Z,98095.88
2018-04-24T09:04:03.593Z,98096.07
2018-04-24T09:05:06.646Z,98083.41
2018-04-24T09:06:09.426Z,98088.81
2018-04-24T09:07:12.299Z,98099.17
2018-04-24T09:08:15.447Z,98088.25
2018-04-24T09:09:18.276Z,98089.25
2018-04-24T09:10:21.117Z,98072.23
2018-04-24T09:11:24.242Z,98089.54
2018-04-24T09:12:27.061Z,98084.88
2018-04-24T09:13:29.883Z,98086.78
2018-04-24T09:14:32.982Z,98093.56
2018-04-24T09:15:35.767Z,98096.30
2018-04-24T09:16:38.547Z,98089.11
2018-04-24T09:17:41.612Z,98093.88
2018-04-24T09:18:44.490Z,98078.09
2018-04-24T09:19:47.846Z,98079.08
2018-04-24T09:20:51.103Z,98090.14
2018-04-24T09:21:53.977Z,98097.05
2018-04-24T09:22:57.096Z,98093.52
2018-04-24T09:24:00.667Z,98097.51
2018-04-24T09:25:03.511Z,98102.53
2018-04-24T09:26:06.289Z,98104.38
2018-04-24T09:27:10.130Z,98099.71
2018-04-24T09:28:12.992Z,98099.75
2018-04-24T09:29:18.303Z,98108.06
2018-04-24T09:30:22.317Z,98097.11
2018-04-24T09:31:29.127Z,98092.95
2018-04-24T09:32:32.743Z,98103.34
2018-04-24T09:33:36.394Z,98109.34
2018-04-24T09:34:39.461Z,98098.48
2018-04-24T09:35:42.255Z,98097.05
2018-04-24T09:36:45.287Z,98102.19
2018-04-24T09:37:49.283Z,98099.55
2018-04-24T09:38:52.787Z,98099.68
2018-04-24T09:39:55.494Z,98103.67
2018-04-24T09:40:58.236Z,98100.22
2018-04-24T09:42:00.988Z,98095.47
2018-04-24T09:43:04.006Z,98107.67
2018-04-24T09:44:08.473Z,98090.80
2018-04-24T09:45:12.455Z,98107.02
2018-04-24T09:46:15.391Z,98097.94
2018-04-24T09:47:19.247Z,98102.63
2018-04-24T09:48:22.428Z,98095.53
2018-04-24T09:49:26.470Z,98096.52
2018-04-24T09:50:30.094Z,98090.66
2018-04-24T09:51:33.210Z,98099.37
2018-04-24T09:52:36.942Z,98104.14
2018-04-24T09:53:39.938Z,98105.55
2018-04-24T09:54:42.925Z,98110.19
2018-04-24T09:55:46.017Z,98119.03
2018-04-24T09:56:48.889Z,98116.92
2018-04-24T09:57:51.955Z,98126.97
2018-04-24T09:58:55.768Z,98104.06
2018-04-24T09:59:58.752Z,98119.44
2018-04-24T10:01:01.618Z,98120.20
2018-04-24T10:02:04.334Z,98124.45
2018-04-24T10:03:07.137Z,98119.73
2018-04-24T10:04:11.138Z,98120.86
2018-04-24T10:05:14.912Z,98114.25
2018-04-24T10:06:18.315Z,98125.08
2018-04-24T10:07:21.206Z,98130.38
2018-04-24T10:08:23.991Z,98124.22
2018-04-24T10:09:28.137Z,98135.09
2018-04-24T10:10:32.781Z,98127.23
2018-04-24T10:11:37.107Z,98130.73
2018-04-24T10:12:39.955Z,98126.86
2018-04-24T10:13:43.017Z,98133.73
2018-04-24T10:14:46.174Z,98127.74
2018-04-24T10:15:49.040Z,98130.43
2018-04-24T10:16:52.987Z,98134.85
2018-04-24T10:17:56.039Z,98130.70
2018-04-24T10:18:59.247Z,98134.67
2018-04-24T10:20:02.617Z,98137.17
2018-04-24T10:21:05.475Z,98121.69
2018-04-24T10:22:08.186Z,98133.37
2018-04-24T10:23:11.887Z,98131.96
2018-04-24T10:24:15.121Z,98138.39
2018-04-24T10:25:17.893Z,98129.92
2018-04-24T10:26:21.950Z,98140.11
2018-04-24T10:27:25.703Z,98124.61
2018-04-24T10:28:28.622Z,98120.55
2018-04-24T10:29:31.918Z,98111.96
2018-04-24T10:30:34.760Z,98118.51
2018-04-24T10:31:38.129Z,98109.43
2018-04-24T10:32:41.743Z,98108.66
2018-04-24T10:33:44.622Z,98117.36
2018-04-24T10:34:47.442Z,98113.52
2018-04-24T10:35:50.912Z,98119.77
2018-04-24T10:36:53.950Z,98116.34
2018-04-24T10:37:57.666Z,98122.84
2018-04-24T10:39:00.677Z,98113.60
2018-04-24T10:40:03.481Z,98114.98
2018-04-24T10:41:06.223Z,98110.03
2018-04-24T10:42:09.956Z,98121.64
2018-04-24T10:43:13.488Z,98118.34
2018-04-24T10:44:16.268Z,98120.88
2018-04-24T10:45:19.054Z,98121.22
2018-04-24T10:46:22.210Z,98118.44
2018-04-24T10:47:25.922Z,98108.09
2018-04-24T10:48:29.551Z,98114.48
2018-04-24T10:49:32.321Z,98093.97
2018-04-24T10:50:35.111Z,98113.11
2018-04-24T10:51:37.993Z,98106.37
2018-04-24T10:52:42.631Z,98103.99
2018-04-24T10:53:45.432Z,98097.80
2018-04-24T10:54:48.457Z,98104.32
2018-04-24T10:55:51.453Z,98099.83
2018-04-24T10:56:55.214Z,98094.62
2018-04-24T10:57:58.761Z,98101.53
2018-04-24T10:59:01.569Z,98091.70
2018-04-24T11:00:04.328Z,98090.53
2018-04-24T11:01:07.288Z,98089.81
2018-04-24T11:02:10.859Z,98086.95
2018-04-24T11:03:15.262Z,98095.34
2018-04-24T11:04:18.663Z,98089.81
2018-04-24T11:05:21.733Z,98084.20
2018-04-24T11:06:24.620Z,98095.37
2018-04-24T11:07:27.650Z,98084.75
2018-04-24T11:08:30.987Z,98085.81
2018-04-24T11:09:34.405Z,98079.44
2018-04-24T11:10:37.203Z,98069.09
2018-04-24T11:11:39.988Z,98062.08
2018-04-24T11:12:43.087Z,98065.48
2018-04-24T11:13:47.669Z,98057.68
2018-04-24T11:14:51.335Z,98069.75
2018-04-24T11:15:54.145Z,98069.14
2018-04-24T11:16:56.871Z,98076.83
2018-04-24T11:17:59.862Z,98062.05
2018-04-24T11:19:03.684Z,98071.84
2018-04-24T11:20:06.969Z,98079.27
2018-04-24T11:21:09.772Z,98076.70
2018-04-24T11:22:12.479Z,98078.50
2018-04-24T11:23:15.319Z,98081.75
2018-04-24T11:24:18.491Z,98078.84
2018-04-24T11:25:22.506Z,98084.01
2018-04-24T11:26:25.157Z,98079.84
2018-04-24T11:27:27.944Z,98080.45
2018-04-24T11:28:30.760Z,98066.95
2018-04-24T11:29:34.802Z,98078.55
2018-04-24T11:30:38.745Z,98070.59
2018-04-24T11:31:43.658Z,98072.59
2018-04-24T11:32:46.430Z,98075.18
2018-04-24T11:33:49.258Z,98066.34
2018-04-24T11:34:53.158Z,98061.05
2018-04-24T11:35:57.530Z,98070.47
2018-04-24T11:37:01.780Z,98070.77
2018-04-24T11:38:05.475Z,98064.86
2018-04-24T11:39:14.533Z,98066.89
2018-04-24T11:40:19.468Z,98069.06
2018-04-24T11:41:22.856Z,98066.13
2018-04-24T11:42:25.603Z,98057.95
2018-04-24T11:43:28.361Z,98069.27
2018-04-24T11:44:32.017Z,98062.36
2018-04-24T11:45:35.535Z,98064.59
2018-04-24T11:46:41.742Z,98047.57
2018-04-24T11:47:45.618Z,98042.05
2018-04-24T11:48:48.717Z,98049.37
2018-04-24T11:49:51.518Z,98050.33
2018-04-24T11:50:54.662Z,98055.02
2018-04-24T11:51:58.606Z,98047.38
2018-04-24T11:53:02.300Z,98050.67
2018-04-24T11:54:05.715Z,98052.45
2018-04-24T11:55:08.597Z,98054.15
2018-04-24T11:56:11.366Z,98052.77
2018-04-24T11:57:15.318Z,98053.17
2018-04-24T11:58:20.351Z,98063.03
2018-04-24T11:59:24.586Z,98050.83
2018-04-24T12:00:28.932Z,98041.22
2018-04-24T12:01:31.972Z,98055.42
2018-04-24T12:02:34.905Z,98045.05
2018-04-24T12:03:38.070Z,98050.86
2018-04-24T12:04:40.848Z,98049.63
2018-04-24T12:05:44.072Z,98036.52
2018-04-24T12:06:46.896Z,98047.64
2018-04-24T12:07:50.839Z,98027.19
2018-04-24T12:08:53.656Z,98033.48
2018-04-24T12:09:56.919Z,98050.00
2018-04-24T12:11:01.386Z,98032.77
2018-04-24T12:12:05.231Z,98044.98
2018-04-24T12:13:08.135Z,98035.66
2018-04-24T12:14:10.916Z,98030.29
2018-04-24T12:15:14.678Z,98026.64
2018-04-24T12:16:18.494Z,98018.56
2018-04-24T12:17:22.041Z,98026.33
2018-04-24T12:18:24.961Z,98027.58
2018-04-24T12:19:27.835Z,98020.33
2018-04-24T12:20:30.918Z,98027.83
2018-04-24T12:21:33.883Z,98003.88
2018-04-24T12:22:37.761Z,98016.75
2018-04-24T12:23:40.538Z,98018.81
2018-04-24T12:24:43.405Z,98020.55
2018-04-24T12:25:46.391Z,98012.53
2018-04-24T12:26:50.948Z,98019.62
2018-04-24T12:27:57.437Z,98023.37
2018-04-24T12:29:01.012Z,98014.29
2018-04-24T12:30:04.376Z,98015.72
2018-04-24T12:31:07.191Z,98020.81
2018-04-24T12:32:10.050Z,98007.64